Time;durP1;ratioP1;P1;durP2;ratioP2;P2;SDS_P1;SDS_P2;PMS_P1;PMS_P2;Temp;Humidity;BMP_temperature;BMP_pressure;BME280_temperature;BME280_humidity;BME280_pressure;Samples;Min_cycle;Max_cycle;Signal;HPM_P1;HPM_P2
2020/12/09 00:01:43;;;;;;;69.63;30.20;;;5.80;99.90;;;;;;5012524;28;20129;-69
2020/12/09 00:04:09;;;;;;;70.22;30.65;;;5.80;99.90;;;;;;5012466;28;20040;-72
2020/12/09 00:06:36;;;;;;;68.57;31.15;;;5.70;99.90;;;;;;5012805;28;20105;-70
2020/12/09 00:09:08;;;;;;;77.18;33.40;;;5.70;99.90;;;;;;5014305;28;20112;-71
2020/12/09 00:11:34;;;;;;;72.05;32.45;;;5.60;99.90;;;;;;5012833;28;20033;-70
2020/12/09 00:14:00;;;;;;;63.70;31.08;;;5.70;99.90;;;;;;5012661;28;20344;-72
2020/12/09 00:16:26;;;;;;;74.65;32.55;;;5.70;99.90;;;;;;5012560;28;20093;-71
2020/12/09 00:18:52;;;;;;;77.32;32.25;;;5.70;99.90;;;;;;5012645;28;20034;-71
2020/12/09 00:21:23;;;;;;;72.32;32.72;;;5.80;99.90;;;;;;5012457;28;20087;-70
2020/12/09 00:23:50;;;;;;;70.80;31.38;;;5.70;99.90;;;;;;5013982;28;20084;-71
2020/12/09 00:26:26;;;;;;;67.50;31.48;;;5.80;99.90;;;;;;5012432;28;20117;-72
2020/12/09 00:28:53;;;;;;;80.72;33.10;;;5.80;99.90;;;;;;5012374;28;20440;-71
2020/12/09 00:31:21;;;;;;;73.43;32.73;;;5.70;99.90;;;;;;5012573;28;20026;-70
2020/12/09 00:33:47;;;;;;;71.25;32.53;;;5.60;99.90;;;;;;5012658;28;20038;-71
2020/12/09 00:36:13;;;;;;;72.97;33.53;;;5.60;99.90;;;;;;5010799;28;20041;-70
2020/12/09 00:38:39;;;;;;;69.28;31.77;;;5.70;99.90;;;;;;5012938;28;20084;-68
2020/12/09 00:41:05;;;;;;;75.68;32.47;;;5.70;99.80;;;;;;5012180;28;20026;-70
2020/12/09 00:43:31;;;;;;;68.15;30.23;;;5.60;99.70;;;;;;5011990;28;20053;-70
2020/12/09 00:45:56;;;;;;;71.80;31.77;;;5.70;99.70;;;;;;5012491;28;20369;-72
2020/12/09 00:48:22;;;;;;;73.05;32.47;;;5.60;99.70;;;;;;5010900;28;20416;-72
2020/12/09 00:50:48;;;;;;;80.63;33.63;;;5.70;99.60;;;;;;5013779;28;20064;-71
2020/12/09 00:53:14;;;;;;;78.03;33.80;;;5.60;99.50;;;;;;5011585;28;20464;-70
2020/12/09 00:55:40;;;;;;;73.53;32.83;;;5.60;99.50;;;;;;5011937;28;20057;-71
2020/12/09 00:58:06;;;;;;;72.38;32.58;;;5.70;99.70;;;;;;5011954;28;20356;-70
2020/12/09 01:00:31;;;;;;;75.82;33.08;;;5.80;99.50;;;;;;5012234;28;20041;-72
2020/12/09 01:02:57;;;;;;;76.78;32.30;;;5.80;99.70;;;;;;5013298;28;20118;-70
2020/12/09 01:05:23;;;;;;;77.00;33.53;;;5.70;99.50;;;;;;5011970;28;20029;-71
2020/12/09 01:07:48;;;;;;;76.65;32.67;;;5.70;99.70;;;;;;5011757;28;20108;-70
2020/12/09 01:10:14;;;;;;;79.03;34.28;;;5.70;99.60;;;;;;5011620;28;20117;-72
2020/12/09 01:12:41;;;;;;;71.60;31.55;;;5.50;99.70;;;;;;5011920;28;20034;-72
2020/12/09 01:15:08;;;;;;;71.93;30.90;;;5.50;99.80;;;;;;5013481;28;20018;-71
2020/12/09 01:17:34;;;;;;;74.80;31.90;;;5.60;99.70;;;;;;5011872;28;20069;-72
2020/12/09 01:20:01;;;;;;;74.30;32.17;;;5.50;99.60;;;;;;5011997;28;20116;-70
2020/12/09 01:22:27;;;;;;;83.30;32.97;;;5.60;99.60;;;;;;5011764;28;20077;-70
2020/12/09 01:24:53;;;;;;;72.20;30.98;;;5.60;99.50;;;;;;5011722;28;20456;-72
2020/12/09 01:27:23;;;;;;;70.13;31.25;;;5.60;99.50;;;;;;5011559;28;20025;-71
2020/12/09 01:29:49;;;;;;;76.20;32.13;;;5.70;99.40;;;;;;5013371;28;20097;-71
2020/12/09 01:32:15;;;;;;;65.32;30.02;;;5.70;99.40;;;;;;5012126;28;20030;-71
2020/12/09 01:34:40;;;;;;;72.28;31.25;;;5.60;99.40;;;;;;5015566;28;20056;-70
2020/12/09 01:37:06;;;;;;;80.20;31.95;;;5.40;99.50;;;;;;5015692;28;20341;-70
2020/12/09 01:39:32;;;;;;;75.60;31.90;;;5.30;99.60;;;;;;5015679;28;20480;-71
2020/12/09 01:41:57;;;;;;;76.90;32.13;;;5.50;99.70;;;;;;5016919;28;20049;-71
2020/12/09 01:44:24;;;;;;;76.57;30.30;;;5.40;99.60;;;;;;5014353;28;20053;-71
2020/12/09 01:46:51;;;;;;;83.10;32.53;;;5.30;99.70;;;;;;5015419;28;20030;-71
2020/12/09 01:49:17;;;;;;;76.65;31.02;;;5.30;99.80;;;;;;5015206;28;20034;-71
2020/12/09 01:51:43;;;;;;;70.70;30.90;;;5.40;99.80;;;;;;5015505;28;20367;-70
2020/12/09 01:54:08;;;;;;;76.53;32.22;;;5.60;99.80;;;;;;5016619;28;20372;-71
2020/12/09 01:56:34;;;;;;;77.30;31.00;;;5.60;99.50;;;;;;5015470;28;20035;-70
2020/12/09 01:59:00;;;;;;;74.25;31.58;;;5.70;99.40;;;;;;5015358;28;20030;-71
2020/12/09 02:01:26;;;;;;;81.88;32.10;;;5.60;99.30;;;;;;5014971;28;20064;-72
2020/12/09 02:03:52;;;;;;;75.40;30.65;;;5.50;99.40;;;;;;5014963;28;20100;-71
2020/12/09 02:06:18;;;;;;;76.32;32.72;;;5.60;99.40;;;;;;5015181;28;20026;-70
2020/12/09 02:08:45;;;;;;;78.90;30.95;;;5.40;99.40;;;;;;5016556;28;20085;-71
2020/12/09 02:11:11;;;;;;;75.50;31.25;;;5.50;99.40;;;;;;5015240;28;20057;-71
2020/12/09 02:13:47;;;;;;;77.97;30.70;;;5.60;99.70;;;;;;5014934;28;20120;-71
2020/12/09 02:16:13;;;;;;;84.97;33.03;;;5.40;99.60;;;;;;5015153;28;20037;-69
2020/12/09 02:18:40;;;;;;;80.70;32.67;;;5.40;99.70;;;;;;5014683;28;20480;-69
2020/12/09 02:21:07;;;;;;;72.65;30.27;;;5.40;99.60;;;;;;5016324;28;20026;-70
2020/12/09 02:23:33;;;;;;;76.10;31.20;;;5.50;99.60;;;;;;5014722;28;20475;-70
2020/12/09 02:25:59;;;;;;;80.97;31.98;;;5.60;99.70;;;;;;5014644;28;20096;-70
2020/12/09 02:28:24;;;;;;;82.65;32.95;;;5.60;99.40;;;;;;5014310;28;20030;-71
2020/12/09 02:30:50;;;;;;;78.88;32.88;;;5.70;99.40;;;;;;5014802;28;20030;-70
2020/12/09 02:33:16;;;;;;;85.43;33.28;;;5.70;99.40;;;;;;5014233;28;20452;-69
2020/12/09 02:35:41;;;;;;;74.97;30.08;;;5.80;99.30;;;;;;5014865;28;20037;-71
2020/12/09 02:38:07;;;;;;;83.07;31.95;;;5.80;99.20;;;;;;5013288;28;20041;-70
2020/12/09 02:40:33;;;;;;;83.00;33.30;;;5.90;99.30;;;;;;5014104;28;20061;-70
2020/12/09 02:42:59;;;;;;;82.57;32.38;;;5.90;99.20;;;;;;5014096;28;20037;-71
2020/12/09 02:45:25;;;;;;;80.63;35.38;;;5.90;99.10;;;;;;5014305;28;20090;-70
2020/12/09 02:47:51;;;;;;;85.65;33.55;;;5.80;99.20;;;;;;5014983;28;20404;-71
2020/12/09 02:50:17;;;;;;;84.65;33.28;;;5.70;99.30;;;;;;5014097;28;20034;-70
2020/12/09 02:52:43;;;;;;;85.00;32.70;;;5.60;99.40;;;;;;5014039;28;20125;-70
2020/12/09 02:55:08;;;;;;;86.40;35.38;;;5.70;99.40;;;;;;5013994;28;20025;-71
2020/12/09 02:57:34;;;;;;;86.45;33.10;;;5.70;99.50;;;;;;5014057;28;20049;-71
2020/12/09 03:00:00;;;;;;;90.85;37.15;;;5.80;99.50;;;;;;5015602;28;20030;-71
2020/12/09 03:02:25;;;;;;;94.28;35.38;;;5.70;99.70;;;;;;5012843;28;20188;-70
2020/12/09 03:04:51;;;;;;;86.28;34.72;;;5.60;99.60;;;;;;5014168;28;20030;-70
2020/12/09 03:07:16;;;;;;;90.63;35.00;;;5.60;99.70;;;;;;5013771;28;20038;-72
2020/12/09 03:09:42;;;;;;;98.15;37.33;;;5.60;99.70;;;;;;5014032;28;20364;-72
2020/12/09 03:12:07;;;;;;;92.32;37.30;;;5.60;99.70;;;;;;5015379;28;20022;-71
2020/12/09 03:14:33;;;;;;;94.25;35.58;;;5.60;99.80;;;;;;5013673;28;20034;-70
2020/12/09 03:16:59;;;;;;;95.30;36.88;;;5.70;99.70;;;;;;5013974;28;20030;-70
2020/12/09 03:19:24;;;;;;;102.25;37.70;;;5.70;99.80;;;;;;5013520;28;20030;-70
2020/12/09 03:21:50;;;;;;;102.15;37.22;;;5.80;99.80;;;;;;5013708;28;20037;-70
2020/12/09 03:24:16;;;;;;;95.10;35.08;;;5.80;99.70;;;;;;5013966;28;20041;-71
2020/12/09 03:26:41;;;;;;;98.38;37.08;;;5.60;99.80;;;;;;5015102;28;20401;-70
2020/12/09 03:29:07;;;;;;;105.55;38.17;;;5.70;99.80;;;;;;5013479;28;20038;-69
2020/12/09 03:31:33;;;;;;;100.07;37.42;;;5.70;99.80;;;;;;5013071;28;20034;-70
2020/12/09 03:33:58;;;;;;;106.82;38.03;;;5.60;99.90;;;;;;5013603;28;20037;-71
2020/12/09 03:36:24;;;;;;;105.22;37.78;;;5.60;99.90;;;;;;5013520;28;20037;-71
2020/12/09 03:38:50;;;;;;;104.93;38.53;;;5.60;99.90;;;;;;5014630;28;20050;-70
2020/12/09 03:41:15;;;;;;;109.07;39.08;;;5.60;99.90;;;;;;5012312;28;20050;-70
2020/12/09 03:43:41;;;;;;;102.78;37.22;;;5.70;99.90;;;;;;5013348;28;20064;-70
2020/12/09 03:46:06;;;;;;;100.50;37.65;;;5.60;99.90;;;;;;5013073;28;20042;-71
2020/12/09 03:48:32;;;;;;;108.57;39.28;;;5.50;99.90;;;;;;5013147;28;20041;-71
2020/12/09 03:50:58;;;;;;;102.85;37.72;;;5.50;99.90;;;;;;5013954;28;20029;-70
2020/12/09 03:53:23;;;;;;;102.32;37.85;;;5.60;99.90;;;;;;5013049;28;20076;-70
2020/12/09 03:55:49;;;;;;;106.68;38.65;;;5.70;99.90;;;;;;5012478;28;20337;-70
2020/12/09 03:58:15;;;;;;;103.18;38.38;;;5.70;99.90;;;;;;5013094;28;20030;-70
2020/12/09 04:00:42;;;;;;;114.05;39.53;;;5.60;99.90;;;;;;5013108;28;20061;-70
2020/12/09 04:03:07;;;;;;;102.85;38.60;;;5.60;99.90;;;;;;5014107;28;20131;-70
2020/12/09 04:05:33;;;;;;;106.13;39.60;;;5.60;99.90;;;;;;5012805;28;20061;-70
2020/12/09 04:07:59;;;;;;;102.72;37.47;;;5.70;99.90;;;;;;5012846;28;20030;-70
2020/12/09 04:10:25;;;;;;;120.90;40.95;;;5.60;99.90;;;;;;5012675;28;20030;-70
2020/12/09 04:12:51;;;;;;;105.57;37.72;;;5.60;99.90;;;;;;5012761;28;20430;-70
2020/12/09 04:15:17;;;;;;;103.70;39.63;;;5.60;99.90;;;;;;5013010;28;20467;-69
2020/12/09 04:17:42;;;;;;;112.45;40.38;;;5.60;99.90;;;;;;5014015;28;20110;-71
2020/12/09 04:20:08;;;;;;;111.72;40.20;;;5.70;99.90;;;;;;5011777;28;20093;-69
2020/12/09 04:22:35;;;;;;;113.93;39.72;;;5.80;99.90;;;;;;5012041;28;20096;-70
2020/12/09 04:25:00;;;;;;;123.10;40.70;;;5.80;99.80;;;;;;5012407;28;20501;-69
2020/12/09 04:27:26;;;;;;;113.07;40.10;;;5.80;99.80;;;;;;5012454;28;20121;-70
2020/12/09 04:29:52;;;;;;;111.10;40.22;;;5.70;99.90;;;;;;5014000;28;20040;-70
2020/12/09 04:32:18;;;;;;;113.28;40.63;;;5.70;99.90;;;;;;5011026;28;20057;-70
2020/12/09 04:34:43;;;;;;;105.28;40.45;;;5.80;99.90;;;;;;5012781;28;20347;-70
2020/12/09 04:37:10;;;;;;;116.18;40.17;;;5.70;99.90;;;;;;5012425;28;20551;-69
2020/12/09 04:39:36;;;;;;;105.03;39.28;;;5.80;99.90;;;;;;5011082;28;20099;-70
2020/12/09 04:42:02;;;;;;;114.00;41.60;;;5.90;99.90;;;;;;5013728;28;20367;-70
2020/12/09 04:44:28;;;;;;;97.25;38.63;;;5.80;99.70;;;;;;5012306;28;20401;-70
2020/12/09 04:46:54;;;;;;;101.45;37.88;;;5.80;99.80;;;;;;5012595;28;20518;-70
2020/12/09 04:49:22;;;;;;;107.80;39.80;;;5.90;99.80;;;;;;5012155;28;20496;-70
2020/12/09 04:51:59;;;;;;;104.68;39.70;;;5.80;99.70;;;;;;5012141;28;20026;-70
2020/12/09 04:54:39;;;;;;;126.35;42.72;;;5.90;99.70;;;;;;5012055;28;20038;-70
2020/12/09 04:57:34;;;;;;;115.65;45.92;;;5.90;99.70;;;;;;5012671;28;20044;-70
2020/12/09 05:00:01;;;;;;;113.55;43.33;;;6.00;99.70;;;;;;5012173;28;20476;-70
2020/12/09 05:02:45;;;;;;;115.68;44.10;;;6.10;99.50;;;;;;5011539;28;20057;-70
2020/12/09 05:05:13;;;;;;;106.82;42.53;;;6.00;99.50;;;;;;5011914;28;20073;-70
2020/12/09 05:07:40;;;;;;;;;;;6.00;99.50;;;;;;5011491;28;20026;-70
2020/12/09 05:10:08;;;;;;;107.95;41.42;;;6.00;99.50;;;;;;5011919;28;19913;-70
2020/12/09 05:12:42;;;;;;;112.88;41.40;;;6.00;99.50;;;;;;5011997;28;20406;-72
2020/12/09 05:15:18;;;;;;;104.32;41.65;;;6.00;99.60;;;;;;5012557;28;20022;-70
2020/12/09 05:17:59;;;;;;;107.25;41.10;;;6.00;99.60;;;;;;5012167;28;20033;-72
2020/12/09 05:20:34;;;;;;;97.10;40.47;;;6.10;99.50;;;;;;5010588;28;20034;-71
2020/12/09 05:23:02;;;;;;;106.38;41.00;;;6.10;99.40;;;;;;5010538;28;20056;-71
2020/12/09 05:25:29;;;;;;;113.53;40.65;;;6.10;99.40;;;;;;5012148;28;20030;-71
2020/12/09 05:27:55;;;;;;;110.50;41.28;;;6.10;99.40;;;;;;5010829;28;20030;-71
2020/12/09 05:30:47;;;;;;;105.85;40.03;;;6.10;99.30;;;;;;5011793;28;20428;-70
2020/12/09 05:33:15;;;;;;;103.22;41.88;;;6.10;99.30;;;;;;5011736;28;20092;-70
2020/12/09 05:35:41;;;;;;;;;;;6.20;99.30;;;;;;5012724;28;20026;-72
2020/12/09 05:38:24;;;;;;;102.43;39.80;;;6.10;99.20;;;;;;5011450;28;20322;-73
2020/12/09 05:40:50;;;;;;;95.95;39.10;;;6.10;99.20;;;;;;5011829;28;20115;-72
2020/12/09 05:43:17;;;;;;;103.68;39.58;;;6.10;99.20;;;;;;5011640;28;20045;-72
2020/12/09 05:45:43;;;;;;;107.68;40.97;;;6.00;99.30;;;;;;5010740;28;20526;-70
2020/12/09 05:48:20;;;;;;;106.60;40.83;;;6.10;99.30;;;;;;5013298;28;20034;-71
2020/12/09 05:50:49;;;;;;;103.18;43.58;;;6.00;99.30;;;;;;5011836;28;20533;-69
2020/12/09 05:53:16;;;;;;;107.45;43.40;;;6.00;99.40;;;;;;5011253;28;20133;-71
2020/12/09 05:55:43;;;;;;;112.05;41.72;;;6.00;99.40;;;;;;5010514;28;20117;-72
2020/12/09 05:58:28;;;;;;;102.43;39.60;;;6.10;99.30;;;;;;5011548;28;20395;-73
2020/12/09 06:01:17;;;;;;;106.15;42.08;;;6.20;99.30;;;;;;5011085;28;20030;-70
2020/12/09 06:03:50;;;;;;;105.63;41.97;;;6.10;99.20;;;;;;5011301;28;20050;-70
2020/12/09 06:06:21;;;;;;;100.70;40.17;;;6.20;99.50;;;;;;5010394;28;20032;-72
2020/12/09 06:08:56;;;;;;;108.53;43.40;;;6.20;99.10;;;;;;5012935;28;20030;-70
2020/12/09 06:11:24;;;;;;;100.93;41.58;;;6.30;99.10;;;;;;5011136;28;20053;-71
2020/12/09 06:13:50;;;;;;;96.03;40.22;;;6.30;99.00;;;;;;5011527;28;20034;-70
2020/12/09 06:16:20;;;;;;;101.07;41.42;;;6.20;99.00;;;;;;5011117;28;20038;-71
2020/12/09 06:18:56;;;;;;;100.78;40.70;;;6.00;99.10;;;;;;5011150;28;20041;-71
2020/12/09 06:21:25;;;;;;;108.10;43.20;;;6.00;99.30;;;;;;5013774;28;20038;-71
2020/12/09 06:23:53;;;;;;;99.50;41.88;;;6.00;99.30;;;;;;5016304;28;20065;-70
2020/12/09 06:26:19;;;;;;;108.53;43.38;;;6.10;99.20;;;;;;5014801;28;20072;-71
2020/12/09 06:28:47;;;;;;;101.18;41.92;;;6.10;99.10;;;;;;5014717;28;20089;-70
2020/12/09 06:31:22;;;;;;;103.55;40.53;;;6.20;99.20;;;;;;5014545;28;20103;-71
2020/12/09 06:33:51;;;;;;;104.05;43.25;;;6.20;99.10;;;;;;5013438;28;20040;-71
2020/12/09 06:36:24;;;;;;;101.50;41.42;;;6.20;99.10;;;;;;5014563;28;20022;-71
2020/12/09 06:39:07;;;;;;;107.55;43.92;;;6.20;99.00;;;;;;5016070;28;20060;-71
2020/12/09 06:41:44;;;;;;;99.25;40.65;;;6.20;99.00;;;;;;5014360;28;20131;-72
2020/12/09 06:44:12;;;;;;;97.80;40.92;;;6.20;99.00;;;;;;5014282;28;20376;-69
2020/12/09 06:46:51;;;;;;;104.43;43.10;;;6.10;99.10;;;;;;5013512;28;20037;-70
2020/12/09 06:49:32;;;;;;;108.78;43.28;;;6.00;99.20;;;;;;5014121;28;20057;-71
2020/12/09 06:52:10;;;;;;;111.38;43.10;;;6.10;99.40;;;;;;5014137;28;20547;-72
2020/12/09 06:54:46;;;;;;;100.18;42.47;;;6.10;99.20;;;;;;5013788;28;20037;-73
2020/12/09 06:57:29;;;;;;;104.22;43.08;;;6.10;99.20;;;;;;5014151;28;20411;-70
2020/12/09 07:00:10;;;;;;;104.03;43.33;;;6.10;99.10;;;;;;5015575;28;20018;-71
2020/12/09 07:02:36;;;;;;;98.72;42.40;;;6.20;99.10;;;;;;5014066;28;20037;-72
2020/12/09 07:05:07;;;;;;;111.10;42.72;;;6.20;99.10;;;;;;5013471;28;20117;-71
2020/12/09 07:07:34;;;;;;;106.38;43.80;;;6.20;99.00;;;;;;5013996;28;20037;-71
2020/12/09 07:10:03;;;;;;;100.10;42.38;;;6.20;99.20;;;;;;5013002;28;20037;-78
2020/12/09 07:12:29;;;;;;;96.13;41.85;;;6.20;99.00;;;;;;5013719;28;20030;-72
2020/12/09 07:14:56;;;;;;;105.78;43.97;;;6.20;99.10;;;;;;5015609;28;20498;-73
2020/12/09 07:17:25;;;;;;;105.00;43.65;;;6.30;99.10;;;;;;5013476;28;20467;-73
2020/12/09 07:19:51;;;;;;;106.97;43.53;;;6.40;98.80;;;;;;5013792;28;20034;-73
2020/12/09 07:22:17;;;;;;;105.65;43.63;;;6.50;98.60;;;;;;5013601;28;20044;-74
2020/12/09 07:24:44;;;;;;;103.22;42.05;;;6.50;98.60;;;;;;5011259;28;20026;-72
2020/12/09 07:27:10;;;;;;;111.55;44.10;;;6.40;98.50;;;;;;5014720;28;20018;-73
2020/12/09 07:29:43;;;;;;;123.00;47.80;;;6.40;98.70;;;;;;5012125;28;20042;-72
2020/12/09 07:32:09;;;;;;;117.82;49.30;;;6.50;98.60;;;;;;5012876;28;20544;-74
2020/12/09 07:34:52;;;;;;;112.03;44.92;;;6.50;98.60;;;;;;5012539;28;20139;-73
2020/12/09 07:37:19;;;;;;;116.10;45.80;;;6.50;98.60;;;;;;5013409;28;20053;-73
2020/12/09 07:39:49;;;;;;;145.23;55.60;;;6.50;98.60;;;;;;5012988;28;20029;-74
2020/12/09 07:42:15;;;;;;;109.88;44.85;;;6.60;98.50;;;;;;5012901;28;20181;-75
2020/12/09 07:44:43;;;;;;;115.15;42.47;;;6.60;98.50;;;;;;5014643;28;20022;-75
2020/12/09 07:47:10;;;;;;;95.53;38.80;;;6.50;98.40;;;;;;5012883;28;20046;-73
2020/12/09 07:49:36;;;;;;;91.97;39.80;;;6.50;98.30;;;;;;5013020;28;20099;-73
2020/12/09 07:52:26;;;;;;;98.25;39.33;;;6.60;98.30;;;;;;5011562;28;20381;-72
2020/12/09 07:54:57;;;;;;;83.55;36.80;;;6.60;98.10;;;;;;5012960;28;20465;-72
2020/12/09 07:57:28;;;;;;;94.18;38.67;;;6.50;98.00;;;;;;5012712;28;20057;-74
2020/12/09 07:59:55;;;;;;;86.40;36.45;;;6.60;98.10;;;;;;5014502;28;20424;-73
2020/12/09 08:02:23;;;;;;;93.22;40.10;;;6.60;98.20;;;;;;5012748;28;20034;-73
2020/12/09 08:05:05;;;;;;;;;;;6.60;98.10;;;;;;5012162;28;20088;-74
2020/12/09 08:07:31;;;;;;;96.60;38.00;;;6.70;98.10;;;;;;5011864;28;19937;-74
2020/12/09 08:10:11;;;;;;;88.68;38.08;;;6.60;98.00;;;;;;5012527;28;20076;-72
2020/12/09 08:12:39;;;;;;;88.35;36.92;;;6.70;98.00;;;;;;5012738;28;20112;-72
2020/12/09 08:15:06;;;;;;;95.18;39.05;;;6.70;98.10;;;;;;5014227;28;20040;-73
2020/12/09 08:17:32;;;;;;;90.78;37.90;;;6.50;98.00;;;;;;5012261;28;20038;-73
2020/12/09 08:20:08;;;;;;;90.53;39.13;;;6.60;98.20;;;;;;5012719;28;20034;-72
2020/12/09 08:22:55;;;;;;;91.80;37.80;;;6.50;98.20;;;;;;5012496;28;20034;-71
2020/12/09 08:25:22;;;;;;;96.93;39.55;;;6.20;98.30;;;;;;5002665;28;20487;-73
2020/12/09 08:27:48;;;;;;;89.55;37.92;;;6.20;98.60;;;;;;5010830;28;20437;-73
2020/12/09 08:30:21;;;;;;;94.68;38.47;;;6.20;98.70;;;;;;5012145;28;20060;-79
2020/12/09 08:33:13;;;;;;;94.28;40.55;;;6.20;98.60;;;;;;5013084;28;20022;-71
2020/12/09 08:35:47;;;;;;;100.78;40.70;;;6.20;98.70;;;;;;5008803;28;20073;-71
2020/12/09 08:38:40;;;;;;;91.93;39.17;;;6.30;98.60;;;;;;5012093;28;20456;-71
2020/12/09 08:41:11;;;;;;;95.10;37.53;;;6.30;98.50;;;;;;5011768;28;20053;-72
2020/12/09 08:43:40;;;;;;;97.43;38.25;;;6.20;98.50;;;;;;5011087;28;20057;-74
2020/12/09 08:46:07;;;;;;;94.55;38.72;;;6.10;98.70;;;;;;5011841;28;20042;-75
2020/12/09 08:48:40;;;;;;;87.50;38.80;;;6.40;98.60;;;;;;5010776;28;20187;-73
2020/12/09 08:51:06;;;;;;;100.95;39.53;;;6.30;98.50;;;;;;5013233;28;20194;-72
2020/12/09 08:53:32;;;;;;;95.28;38.40;;;6.40;98.30;;;;;;5011945;28;20049;-71
2020/12/09 08:55:58;;;;;;;86.10;36.33;;;6.40;98.40;;;;;;5012081;28;20117;-70
2020/12/09 08:58:24;;;;;;;90.35;36.53;;;6.40;98.50;;;;;;5012046;28;20030;-71
2020/12/09 09:00:51;;;;;;;89.75;37.70;;;6.30;98.40;;;;;;5011716;28;20026;-71
2020/12/09 09:03:20;;;;;;;88.68;36.80;;;6.20;98.60;;;;;;5011483;28;20092;-72
2020/12/09 09:05:47;;;;;;;99.78;38.28;;;6.40;98.60;;;;;;5013495;28;20534;-71
2020/12/09 09:08:14;;;;;;;86.22;36.83;;;6.50;98.50;;;;;;5011848;28;20042;-70
2020/12/09 09:10:42;;;;;;;91.55;38.22;;;6.50;98.30;;;;;;5012026;28;20030;-72
2020/12/09 09:13:08;;;;;;;86.93;36.95;;;6.60;98.30;;;;;;5010777;28;20101;-71
2020/12/09 09:15:35;;;;;;;97.80;40.58;;;6.60;98.30;;;;;;5010340;28;20041;-70
2020/12/09 09:18:02;;;;;;;90.30;38.15;;;6.60;98.30;;;;;;5012384;28;20041;-69
2020/12/09 09:20:28;;;;;;;92.23;38.53;;;6.70;98.30;;;;;;5011645;28;20108;-70
2020/12/09 09:22:54;;;;;;;88.50;38.03;;;6.70;98.20;;;;;;5011457;28;20362;-69
2020/12/09 09:25:21;;;;;;;94.68;37.67;;;6.70;98.00;;;;;;5010622;28;20364;-72
2020/12/09 09:27:48;;;;;;;87.55;37.22;;;6.60;98.10;;;;;;5011681;28;20030;-70
2020/12/09 09:30:14;;;;;;;93.07;38.28;;;6.70;98.20;;;;;;5011322;28;20084;-70
2020/12/09 09:32:40;;;;;;;94.07;38.72;;;6.70;98.20;;;;;;5013159;28;20037;-69
2020/12/09 09:35:05;;;;;;;92.00;40.53;;;6.70;98.10;;;;;;5011075;28;20041;-69
2020/12/09 09:37:31;;;;;;;88.03;38.30;;;6.70;98.10;;;;;;5011552;28;20046;-68
2020/12/09 09:39:57;;;;;;;91.82;39.90;;;6.70;98.00;;;;;;5011358;28;20042;-68
2020/12/09 09:42:23;;;;;;;104.65;39.65;;;6.70;98.10;;;;;;5011502;28;20030;-68
2020/12/09 09:44:50;;;;;;;89.35;38.08;;;6.70;98.10;;;;;;5013375;28;20122;-68
2020/12/09 09:47:16;;;;;;;97.97;38.40;;;6.60;98.00;;;;;;5011178;28;20034;-67
2020/12/09 09:49:42;;;;;;;95.68;39.78;;;6.70;97.90;;;;;;5010180;28;20078;-68
2020/12/09 09:52:07;;;;;;;90.10;37.70;;;6.70;97.90;;;;;;5011109;28;20113;-68
2020/12/09 09:54:33;;;;;;;94.20;38.60;;;6.70;98.00;;;;;;5013220;28;20041;-68
2020/12/09 09:56:59;;;;;;;99.47;39.13;;;6.70;97.90;;;;;;5016887;28;20032;-67
2020/12/09 09:59:26;;;;;;;99.30;38.63;;;6.70;98.00;;;;;;5015073;28;20038;-69
2020/12/09 10:01:52;;;;;;;95.68;40.33;;;6.70;97.80;;;;;;5013733;28;20125;-69
2020/12/09 10:04:19;;;;;;;90.47;38.58;;;6.80;98.00;;;;;;5015091;28;20087;-69
2020/12/09 10:06:45;;;;;;;96.60;40.40;;;6.80;97.80;;;;;;5015103;28;20030;-68
2020/12/09 10:09:11;;;;;;;97.10;38.63;;;6.80;97.70;;;;;;5014681;28;20479;-71
2020/12/09 10:11:38;;;;;;;86.00;37.00;;;6.70;97.80;;;;;;5016553;28;20025;-68
2020/12/09 10:14:05;;;;;;;92.07;38.28;;;7.00;97.80;;;;;;5013518;28;20042;-67
2020/12/09 10:16:31;;;;;;;90.30;37.42;;;6.70;97.70;;;;;;5014725;28;20037;-68
2020/12/09 10:18:57;;;;;;;91.75;37.70;;;6.70;97.70;;;;;;5014679;28;20467;-69
2020/12/09 10:21:23;;;;;;;87.93;37.25;;;6.60;97.90;;;;;;5014287;28;20053;-69
2020/12/09 10:23:49;;;;;;;93.50;37.22;;;6.70;97.80;;;;;;5016009;28;20032;-68
2020/12/09 10:26:15;;;;;;;84.40;35.67;;;6.80;97.90;;;;;;5011023;28;20034;-69
2020/12/09 10:28:42;;;;;;;89.60;37.03;;;6.80;97.90;;;;;;5014251;28;20037;-68
2020/12/09 10:31:08;;;;;;;101.63;38.08;;;6.80;97.70;;;;;;5013455;28;20341;-68
2020/12/09 10:33:34;;;;;;;118.50;41.17;;;6.70;97.70;;;;;;5014283;28;20193;-69
2020/12/09 10:36:00;;;;;;;102.25;37.55;;;6.80;98.10;;;;;;5015936;28;20333;-68
2020/12/09 10:38:25;;;;;;;101.53;39.08;;;6.80;97.80;;;;;;5014492;28;20062;-69
2020/12/09 10:40:51;;;;;;;94.03;37.65;;;6.70;97.80;;;;;;5014343;28;20378;-67
2020/12/09 10:43:17;;;;;;;87.35;37.97;;;6.70;97.80;;;;;;5013985;28;20049;-68
2020/12/09 10:45:43;;;;;;;97.35;37.80;;;6.70;98.10;;;;;;5014411;28;20034;-70
2020/12/09 10:48:09;;;;;;;95.90;38.28;;;6.70;98.00;;;;;;5015593;28;20026;-68
2020/12/09 10:50:34;;;;;;;99.15;38.90;;;6.70;97.90;;;;;;5014075;28;20030;-68
2020/12/09 10:53:02;;;;;;;96.22;39.08;;;6.70;98.00;;;;;;5013816;28;20464;-68
2020/12/09 10:55:28;;;;;;;96.28;39.15;;;6.70;97.90;;;;;;5013020;28;20057;-69
2020/12/09 10:57:53;;;;;;;92.97;37.30;;;6.70;97.90;;;;;;5014013;28;20137;-68
2020/12/09 11:00:19;;;;;;;106.95;38.58;;;6.70;97.90;;;;;;5013782;28;20018;-68
2020/12/09 11:02:45;;;;;;;102.90;37.90;;;6.80;98.00;;;;;;5015188;28;20030;-69
2020/12/09 11:05:11;;;;;;;100.65;38.13;;;6.70;97.80;;;;;;5012523;28;20087;-69
2020/12/09 11:07:36;;;;;;;94.55;37.17;;;6.70;97.80;;;;;;5013435;28;20045;-68
2020/12/09 11:10:03;;;;;;;98.95;39.72;;;6.80;97.90;;;;;;5013525;28;20092;-69
2020/12/09 11:12:28;;;;;;;103.35;37.63;;;6.70;97.90;;;;;;5013621;28;20030;-67
2020/12/09 11:14:54;;;;;;;101.10;38.50;;;6.80;97.90;;;;;;5015149;28;20032;-68
2020/12/09 11:17:20;;;;;;;104.45;38.85;;;6.80;97.80;;;;;;5013721;28;20376;-69
2020/12/09 11:19:45;;;;;;;107.97;40.45;;;6.90;97.90;;;;;;5012356;28;20057;-68
2020/12/09 11:22:11;;;;;;;98.78;39.00;;;7.00;97.70;;;;;;5013683;28;20069;-68
2020/12/09 11:24:37;;;;;;;104.30;39.55;;;6.90;97.70;;;;;;5012456;28;20026;-70
2020/12/09 11:27:04;;;;;;;115.97;41.72;;;6.90;97.80;;;;;;5015142;28;20044;-72
2020/12/09 11:29:30;;;;;;;105.95;40.00;;;6.90;97.80;;;;;;5013248;28;20353;-72
2020/12/09 11:31:56;;;;;;;106.30;39.47;;;6.90;97.80;;;;;;5013016;28;20073;-71
2020/12/09 11:34:23;;;;;;;108.95;40.42;;;6.90;97.80;;;;;;5013090;28;20068;-69
2020/12/09 11:36:49;;;;;;;107.40;40.45;;;6.90;98.00;;;;;;5013509;28;20030;-70
2020/12/09 11:39:15;;;;;;;101.22;39.67;;;7.10;97.90;;;;;;5013024;28;20306;-71
2020/12/09 11:41:40;;;;;;;104.13;41.70;;;7.00;97.70;;;;;;5014642;28;20017;-71
2020/12/09 11:44:06;;;;;;;107.57;40.05;;;7.00;97.80;;;;;;5013046;28;20060;-71
2020/12/09 11:46:32;;;;;;;107.53;41.70;;;7.00;97.80;;;;;;5012880;28;20046;-76
2020/12/09 11:48:57;;;;;;;101.95;39.00;;;7.00;97.80;;;;;;5012641;28;20129;-74
2020/12/09 11:51:24;;;;;;;108.97;39.90;;;6.90;97.80;;;;;;5010306;28;20040;-77
2020/12/09 11:53:51;;;;;;;109.32;41.20;;;6.80;97.90;;;;;;4997261;28;20049;-75
2020/12/09 11:56:27;;;;;;;104.55;41.70;;;6.80;98.50;;;;;;5008917;28;20038;-74
2020/12/09 11:58:52;;;;;;;106.30;40.20;;;6.90;98.40;;;;;;5012618;28;20038;-75
2020/12/09 12:01:19;;;;;;;101.53;41.17;;;6.70;97.90;;;;;;5011822;28;20101;-79
2020/12/09 12:03:47;;;;;;;112.53;41.58;;;6.90;98.10;;;;;;5011770;28;20080;-77
2020/12/09 12:06:25;;;;;;;103.97;41.40;;;7.10;97.90;;;;;;5012302;28;20037;-71
2020/12/09 12:08:52;;;;;;;110.78;40.28;;;7.20;97.70;;;;;;5013548;28;20034;-77
2020/12/09 12:11:19;;;;;;;108.93;40.88;;;7.20;97.60;;;;;;5012194;28;20463;-69
2020/12/09 12:13:45;;;;;;;100.83;40.73;;;7.10;97.50;;;;;;5011913;28;20064;-68
2020/12/09 12:16:19;;;;;;;101.95;40.47;;;7.10;97.50;;;;;;5012330;28;20092;-69
2020/12/09 12:18:45;;;;;;;103.07;38.28;;;7.00;97.50;;;;;;5012535;28;20034;-70
2020/12/09 12:21:12;;;;;;;103.70;40.08;;;7.00;97.80;;;;;;5014057;28;20356;-70
2020/12/09 12:23:38;;;;;;;107.10;41.58;;;7.10;97.80;;;;;;5010432;28;20038;-70
2020/12/09 12:26:04;;;;;;;110.85;40.30;;;7.10;97.50;;;;;;5012485;28;20364;-70
2020/12/09 12:28:30;;;;;;;112.85;41.88;;;7.10;97.50;;;;;;5009155;28;20456;-71
2020/12/09 12:30:56;;;;;;;105.03;41.25;;;7.00;97.40;;;;;;5011841;28;20025;-71
2020/12/09 12:33:22;;;;;;;108.00;40.28;;;7.00;97.60;;;;;;5011102;28;20041;-71
2020/12/09 12:35:47;;;;;;;114.18;45.40;;;7.00;97.60;;;;;;5013787;28;20380;-71
2020/12/09 12:38:13;;;;;;;116.22;42.97;;;7.10;97.70;;;;;;5012389;28;20045;-70